Time,TemperatureF,DewpointF,PressureIn,WindDirection,WindDirectionDegrees,WindSpeedMPH,WindSpeedGustMPH,Humidity,HourlyPrecipIn,Conditions,Clouds,dailyrainin,SoftwareType,DateUTC
2013-05-09 00:01:00,55.6,54.0,29.88,ENE,78,0.0,-999.0,94,-99.99,,,0.23,weatherlink.com 1.10,2013-05-09 04:01:00,
2013-05-09 00:16:00,55.7,54.0,29.87,ENE,78,0.0,-999.0,94,-99.99,,,0.00,weatherlink.com 1.10,2013-05-09 04:16:00,
2013-05-09 00:31:00,55.7,54.0,29.87,ENE,78,0.0,-999.0,94,-99.99,,,0.00,weatherlink.com 1.10,2013-05-09 04:31:00,
2013-05-09 00:46:00,55.9,55.0,29.87,ENE,78,0.0,-999.0,95,-99.99,,,0.00,weatherlink.com 1.10,2013-05-09 04:46:00,
2013-05-09 01:01:00,55.9,54.0,29.87,ENE,78,0.0,-999.0,94,-99.99,,,0.00,weatherlink.com 1.10,2013-05-09 05:01:00,
2013-05-09 01:16:00,55.6,54.0,29.86,ENE,78,0.0,-999.0,95,-99.99,,,0.00,weatherlink.com 1.10,2013-05-09 05:16:00,
2013-05-09 01:31:00,55.3,54.0,29.86,ENE,78,0.0,-999.0,94,-99.99,,,0.00,weatherlink.com 1.10,2013-05-09 05:31:00,
2013-05-09 01:46:00,55.0,53.0,29.86,ENE,78,0.0,-999.0,94,-99.99,,,0.00,weatherlink.com 1.10,2013-05-09 05:46:00,
2013-05-09 02:01:00,55.0,53.0,29.85,ENE,78,0.0,-999.0,94,-99.99,,,0.00,weatherlink.com 1.10,2013-05-09 06:01:00,
2013-05-09 02:16:00,54.9,54.0,29.84,ENE,78,0.0,-999.0,95,-99.99,,,0.00,weatherlink.com 1.10,2013-05-09 06:16:00,
2013-05-09 02:31:00,55.0,54.0,29.84,ENE,78,0.0,-999.0,95,-99.99,,,0.00,weatherlink.com 1.10,2013-05-09 06:31:00,
2013-05-09 02:46:00,54.8,53.0,29.84,ENE,78,0.0,-999.0,94,-99.99,,,0.00,weatherlink.com 1.10,2013-05-09 06:46:00,
2013-05-09 03:01:00,54.7,53.0,29.84,ENE,78,0.0,-999.0,94,-99.99,,,0.00,weatherlink.com 1.10,2013-05-09 07:01:00,
2013-05-09 03:16:00,54.4,53.0,29.84,ENE,78,0.0,-999.0,95,-99.99,,,0.00,weatherlink.com 1.10,2013-05-09 07:16:00,
2013-05-09 03:31:00,54.1,53.0,29.83,ENE,78,0.0,-999.0,94,-99.99,,,0.00,weatherlink.com 1.10,2013-05-09 07:31:00,
2013-05-09 03:46:00,53.9,53.0,29.84,ENE,78,0.0,-999.0,95,-99.99,,,0.00,weatherlink.com 1.10,2013-05-09 07:46:00,
2013-05-09 04:01:00,53.9,53.0,29.83,ENE,78,0.0,-999.0,95,-99.99,,,0.00,weatherlink.com 1.10,2013-05-09 08:01:00,
2013-05-09 04:16:00,53.7,52.0,29.84,ENE,78,0.0,-999.0,95,-99.99,,,0.00,weatherlink.com 1.10,2013-05-09 08:16:00,
2013-05-09 04:31:00,53.5,52.0,29.83,ENE,78,0.0,-999.0,95,-99.99,,,0.00,weatherlink.com 1.10,2013-05-09 08:31:00,
2013-05-09 04:46:00,53.5,52.0,29.84,ENE,78,0.0,-999.0,95,-99.99,,,0.00,weatherlink.com 1.10,2013-05-09 08:46:00,
2013-05-09 05:01:00,53.5,52.0,29.84,ENE,78,0.0,-999.0,95,-99.99,,,0.00,weatherlink.com 1.10,2013-05-09 09:01:00,
2013-05-09 05:16:00,53.7,52.0,29.84,ENE,78,0.0,-999.0,95,-99.99,,,0.00,weatherlink.com 1.10,2013-05-09 09:16:00,
2013-05-09 05:31:00,53.7,52.0,29.84,ENE,78,0.0,-999.0,95,-99.99,,,0.00,weatherlink.com 1.10,2013-05-09 09:31:00,
2013-05-09 05:46:00,53.8,52.0,29.84,East,82,0.0,-999.0,95,-99.99,,,0.00,weatherlink.com 1.10,2013-05-09 09:46:00,
2013-05-09 06:01:00,53.9,53.0,29.85,East,82,0.0,-999.0,95,-99.99,,,0.00,weatherlink.com 1.10,2013-05-09 10:01:00,
2013-05-09 06:16:00,53.8,52.0,29.85,NE,55,0.0,-999.0,95,-99.99,,,0.00,weatherlink.com 1.10,2013-05-09 10:16:00,
2013-05-09 06:31:00,53.9,53.0,29.85,NE,55,0.0,-999.0,95,-99.99,,,0.00,weatherlink.com 1.10,2013-05-09 10:31:00,
2013-05-09 06:46:00,54.1,53.0,29.86,NE,55,0.0,-999.0,95,-99.99,,,0.00,weatherlink.com 1.10,2013-05-09 10:46:00,
2013-05-09 07:01:00,54.2,53.0,29.86,NE,55,0.0,-999.0,95,-99.99,,,0.00,weatherlink.com 1.10,2013-05-09 11:01:00,
2013-05-09 07:16:00,54.2,53.0,29.87,NE,55,0.0,-999.0,95,-99.99,,,0.00,weatherlink.com 1.10,2013-05-09 11:16:00,
2013-05-09 07:31:00,54.4,53.0,29.88,NE,55,0.0,-999.0,95,-99.99,,,0.00,weatherlink.com 1.10,2013-05-09 11:31:00,
2013-05-09 07:46:00,54.8,53.0,29.88,NE,55,0.0,-999.0,95,-99.99,,,0.00,weatherlink.com 1.10,2013-05-09 11:46:00,
2013-05-09 08:01:00,55.1,54.0,29.88,ESE,103,0.0,-999.0,95,-99.99,,,0.00,weatherlink.com 1.10,2013-05-09 12:01:00,
2013-05-09 08:16:00,55.1,54.0,29.88,ESE,103,0.0,-999.0,95,-99.99,,,0.00,weatherlink.com 1.10,2013-05-09 12:16:00,
2013-05-09 08:31:00,55.6,54.0,29.88,ESE,102,0.0,-999.0,95,-99.99,,,0.00,weatherlink.com 1.10,2013-05-09 12:31:00,
2013-05-09 08:46:00,56.3,55.0,29.89,ESE,102,0.0,-999.0,95,-99.99,,,0.00,weatherlink.com 1.10,2013-05-09 12:46:00,
2013-05-09 09:01:00,56.9,56.0,29.90,ESE,105,0.0,-999.0,95,-99.99,,,0.00,weatherlink.com 1.10,2013-05-09 13:01:00,
2013-05-09 09:16:00,56.8,55.0,29.90,ESE,105,0.0,-999.0,95,-99.99,,,0.00,weatherlink.com 1.10,2013-05-09 13:16:00,
2013-05-09 09:31:00,57.3,56.0,29.90,ESE,105,0.0,-999.0,94,-99.99,,,0.00,weatherlink.com 1.10,2013-05-09 13:31:00,
2013-05-09 09:46:00,57.5,56.0,29.89,ESE,105,0.0,-999.0,94,-99.99,,,0.00,weatherlink.com 1.10,2013-05-09 13:46:00,
2013-05-09 10:01:00,57.9,56.0,29.90,ESE,105,0.0,-999.0,93,-99.99,,,0.00,weatherlink.com 1.10,2013-05-09 14:01:00,
2013-05-09 10:16:00,58.0,56.0,29.90,ESE,105,0.0,-999.0,92,-99.99,,,0.00,weatherlink.com 1.10,2013-05-09 14:16:00,
2013-05-09 10:31:00,58.2,56.0,29.90,ESE,105,0.0,-999.0,92,-99.99,,,0.00,weatherlink.com 1.10,2013-05-09 14:31:00,
2013-05-09 10:46:00,59.0,56.0,29.90,ESE,105,0.0,-999.0,91,-99.99,,,0.00,weatherlink.com 1.10,2013-05-09 14:46:00,
2013-05-09 11:02:00,60.2,57.0,29.90,SE,128,0.0,-999.0,90,-99.99,,,0.00,weatherlink.com 1.10,2013-05-09 15:02:00,
2013-05-09 11:17:00,62.6,59.0,29.90,SE,128,0.0,-999.0,87,-99.99,,,0.00,weatherlink.com 1.10,2013-05-09 15:17:00,
2013-05-09 11:32:00,64.3,59.0,29.89,North,5,0.0,-999.0,83,-99.99,,,0.00,weatherlink.com 1.10,2013-05-09 15:32:00,
2013-05-09 11:47:00,65.8,60.0,29.89,East,88,0.0,-999.0,80,-99.99,,,0.00,weatherlink.com 1.10,2013-05-09 15:47:00,
2013-05-09 12:02:00,68.0,61.0,29.88,WSW,237,0.0,-999.0,77,-99.99,,,0.00,weatherlink.com 1.10,2013-05-09 16:02:00,
2013-05-09 12:17:00,69.4,61.0,29.88,SSE,159,0.0,-999.0,75,-99.99,,,0.00,weatherlink.com 1.10,2013-05-09 16:17:00,
2013-05-09 12:32:00,70.4,61.0,29.88,SSE,160,0.0,-999.0,71,-99.99,,,0.00,weatherlink.com 1.10,2013-05-09 16:32:00,
2013-05-09 12:47:00,70.1,61.0,29.88,ENE,59,0.0,-999.0,73,-99.99,,,0.00,weatherlink.com 1.10,2013-05-09 16:47:00,
2013-05-09 13:02:00,70.8,61.0,29.88,East,96,1.0,-999.0,71,-99.99,,,0.00,weatherlink.com 1.10,2013-05-09 17:02:00,
2013-05-09 13:17:00,70.0,60.0,29.87,South,171,0.0,-999.0,71,-99.99,,,0.00,weatherlink.com 1.10,2013-05-09 17:17:00,
2013-05-09 13:32:00,70.1,60.0,29.87,SE,140,0.0,-999.0,70,-99.99,,,0.00,weatherlink.com 1.10,2013-05-09 17:32:00,
2013-05-09 13:47:00,72.2,62.0,29.86,South,182,0.0,-999.0,70,-99.99,,,0.00,weatherlink.com 1.10,2013-05-09 17:47:00,
2013-05-09 14:02:00,73.4,62.0,29.86,ENE,63,0.0,-999.0,67,-99.99,,,0.00,weatherlink.com 1.10,2013-05-09 18:02:00,
2013-05-09 14:17:00,71.1,60.0,29.86,ENE,63,0.0,-999.0,68,-99.99,,,0.00,weatherlink.com 1.10,2013-05-09 18:17:00,
2013-05-09 14:32:00,71.5,60.0,29.86,SSE,165,0.0,-999.0,68,-99.99,,,0.00,weatherlink.com 1.10,2013-05-09 18:32:00,
2013-05-09 14:47:00,71.1,60.0,29.86,SSW,213,0.0,-999.0,68,-99.99,,,0.00,weatherlink.com 1.10,2013-05-09 18:47:00,
2013-05-09 15:02:00,70.4,60.0,29.85,SSW,213,0.0,-999.0,70,-99.99,,,0.00,weatherlink.com 1.10,2013-05-09 19:02:00,
2013-05-09 15:17:00,69.9,62.0,29.86,SSW,213,0.0,-999.0,75,-99.99,,,0.00,weatherlink.com 1.10,2013-05-09 19:17:00,
2013-05-09 15:32:00,71.2,62.0,29.85,SSW,213,0.0,-999.0,73,-99.99,,,0.00,weatherlink.com 1.10,2013-05-09 19:32:00,
2013-05-09 15:47:00,70.8,62.0,29.85,SSW,213,0.0,-999.0,73,-99.99,,,0.00,weatherlink.com 1.10,2013-05-09 19:47:00,
2013-05-09 16:02:00,69.9,60.0,29.85,SSW,213,0.0,-999.0,72,-99.99,,,0.00,weatherlink.com 1.10,2013-05-09 20:02:00,
2013-05-09 16:17:00,71.4,62.0,29.85,South,173,0.0,-999.0,71,-99.99,,,0.00,weatherlink.com 1.10,2013-05-09 20:17:00,
2013-05-09 16:32:00,73.5,62.0,29.84,South,173,0.0,-999.0,67,-99.99,,,0.00,weatherlink.com 1.10,2013-05-09 20:32:00,
2013-05-09 16:47:00,74.2,61.0,29.85,SW,223,0.0,-999.0,64,-99.99,,,0.00,weatherlink.com 1.10,2013-05-09 20:47:00,
2013-05-09 17:02:00,71.5,61.0,29.84,ENE,57,0.0,-999.0,69,-99.99,,,0.00,weatherlink.com 1.10,2013-05-09 21:02:00,
2013-05-09 17:17:00,71.0,61.0,29.84,ENE,58,0.0,-999.0,70,-99.99,,,0.00,weatherlink.com 1.10,2013-05-09 21:17:00,
2013-05-09 17:32:00,70.8,61.0,29.85,ENE,58,0.0,-999.0,72,-99.99,,,0.00,weatherlink.com 1.10,2013-05-09 21:32:00,
2013-05-09 17:47:00,70.5,61.0,29.85,ENE,58,0.0,-999.0,73,-99.99,,,0.00,weatherlink.com 1.10,2013-05-09 21:47:00,
2013-05-09 18:02:00,70.3,62.0,29.85,ENE,58,0.0,-999.0,74,-99.99,,,0.00,weatherlink.com 1.10,2013-05-09 22:02:00,
2013-05-09 18:17:00,70.9,60.0,29.84,ENE,69,0.0,-999.0,69,-99.99,,,0.00,weatherlink.com 1.10,2013-05-09 22:17:00,
2013-05-09 18:32:00,70.9,60.0,29.84,ENE,69,0.0,-999.0,68,-99.99,,,0.00,weatherlink.com 1.10,2013-05-09 22:32:00,
2013-05-09 18:47:00,70.4,59.0,29.85,ENE,70,0.0,-999.0,67,-99.99,,,0.00,weatherlink.com 1.10,2013-05-09 22:47:00,
2013-05-09 19:02:00,70.3,59.0,29.86,ENE,69,0.0,-999.0,67,-99.99,,,0.00,weatherlink.com 1.10,2013-05-09 23:02:00,
2013-05-09 19:17:00,69.9,59.0,29.86,ENE,70,0.0,-999.0,69,-99.99,,,0.00,weatherlink.com 1.10,2013-05-09 23:17:00,
2013-05-09 19:32:00,69.1,60.0,29.87,ENE,70,0.0,-999.0,72,-99.99,,,0.00,weatherlink.com 1.10,2013-05-09 23:32:00,
2013-05-09 19:47:00,66.7,61.0,29.88,NNW,345,0.0,-999.0,81,-99.99,,,0.00,weatherlink.com 1.10,2013-05-09 23:47:00,
2013-05-09 20:02:00,64.4,61.0,29.88,NNW,345,0.0,-999.0,87,-99.99,,,0.01,weatherlink.com 1.10,2013-05-10 00:02:00,
2013-05-09 20:17:00,63.4,60.0,29.88,NNW,345,0.0,-999.0,89,-99.99,,,0.01,weatherlink.com 1.10,2013-05-10 00:17:00,
2013-05-09 20:32:00,62.7,60.0,29.89,NNW,345,0.0,-999.0,90,-99.99,,,0.01,weatherlink.com 1.10,2013-05-10 00:32:00,
2013-05-09 20:47:00,62.0,59.0,29.89,NNW,345,0.0,-999.0,90,-99.99,,,0.01,weatherlink.com 1.10,2013-05-10 00:47:00,
2013-05-09 21:02:00,61.3,59.0,29.90,NNW,345,0.0,-999.0,91,-99.99,,,0.01,weatherlink.com 1.10,2013-05-10 01:02:00,
2013-05-09 21:17:00,60.7,58.0,29.90,NNW,345,0.0,-999.0,91,-99.99,,,0.01,weatherlink.com 1.10,2013-05-10 01:17:00,
2013-05-09 21:32:00,60.2,58.0,29.91,NNW,345,0.0,-999.0,92,-99.99,,,0.01,weatherlink.com 1.10,2013-05-10 01:32:00,
2013-05-09 21:47:00,59.8,58.0,29.91,NNW,345,0.0,-999.0,92,-99.99,,,0.01,weatherlink.com 1.10,2013-05-10 01:47:00,
2013-05-09 22:02:00,59.4,57.0,29.91,NNW,345,0.0,-999.0,92,-99.99,,,0.01,weatherlink.com 1.10,2013-05-10 02:02:00,
2013-05-09 22:17:00,59.0,57.0,29.91,NNW,345,0.0,-999.0,93,-99.99,,,0.01,weatherlink.com 1.10,2013-05-10 02:17:00,
2013-05-09 22:33:00,59.0,57.0,29.91,NNW,345,0.0,-999.0,93,-99.99,,,0.01,weatherlink.com 1.10,2013-05-10 02:33:00,
2013-05-09 22:48:00,58.6,57.0,29.91,NNW,345,0.0,-999.0,93,-99.99,,,0.01,weatherlink.com 1.10,2013-05-10 02:48:00,
2013-05-09 23:03:00,58.2,56.0,29.91,NNW,345,0.0,-999.0,93,-99.99,,,0.01,weatherlink.com 1.10,2013-05-10 03:03:00,
2013-05-09 23:18:00,58.2,56.0,29.91,NNW,345,0.0,-999.0,93,-99.99,,,0.01,weatherlink.com 1.10,2013-05-10 03:18:00,
2013-05-09 23:33:00,58.1,56.0,29.91,NNW,345,0.0,-999.0,93,-99.99,,,0.01,weatherlink.com 1.10,2013-05-10 03:33:00,
2013-05-09 23:48:00,57.8,56.0,29.90,NNW,345,0.0,-999.0,93,-99.99,,,0.01,weatherlink.com 1.10,2013-05-10 03:48:00,